sensor_id;sensor_type;location;lat;lon;timestamp;pressure;altitude;pressure_sealevel;temperature;humidity
76137;BME280;65019;53.174;18.166;2022-11-20T00:01:09;100955.78;;;-0.39;71.84
76137;BME280;65019;53.174;18.166;2022-11-20T00:03:35;100954.48;;;-0.40;71.90
76137;BME280;65019;53.174;18.166;2022-11-20T00:06:03;100954.13;;;-0.44;72.03
76137;BME280;65019;53.174;18.166;2022-11-20T00:08:30;100950.92;;;-0.41;72.23
76137;BME280;65019;53.174;18.166;2022-11-20T00:10:56;100949.24;;;-0.28;71.59
76137;BME280;65019;53.174;18.166;2022-11-20T00:13:23;100947.86;;;-0.37;72.25
76137;BME280;65019;53.174;18.166;2022-11-20T00:15:56;100947.48;;;-0.36;72.10
76137;BME280;65019;53.174;18.166;2022-11-20T00:18:23;100950.95;;;-0.42;72.44
76137;BME280;65019;53.174;18.166;2022-11-20T00:20:49;100952.52;;;-0.43;71.69
76137;BME280;65019;53.174;18.166;2022-11-20T00:23:15;100957.42;;;-0.46;72.28
76137;BME280;65019;53.174;18.166;2022-11-20T00:25:41;100961.41;;;-0.48;71.71
76137;BME280;65019;53.174;18.166;2022-11-20T00:28:07;100965.45;;;-0.51;72.55
76137;BME280;65019;53.174;18.166;2022-11-20T00:30:33;100964.80;;;-0.30;71.57
76137;BME280;65019;53.174;18.166;2022-11-20T00:32:59;100965.83;;;-0.30;71.99
76137;BME280;65019;53.174;18.166;2022-11-20T00:35:25;100964.51;;;-0.31;71.91
76137;BME280;65019;53.174;18.166;2022-11-20T00:37:51;100965.35;;;-0.35;72.57
76137;BME280;65019;53.174;18.166;2022-11-20T00:40:17;100965.37;;;-0.35;72.34
76137;BME280;65019;53.174;18.166;2022-11-20T00:42:42;100957.91;;;-0.36;71.97
76137;BME280;65019;53.174;18.166;2022-11-20T00:45:09;100958.86;;;-0.43;72.35
76137;BME280;65019;53.174;18.166;2022-11-20T00:47:35;100958.32;;;-0.47;72.50
76137;BME280;65019;53.174;18.166;2022-11-20T00:50:01;100959.00;;;-0.47;72.46
76137;BME280;65019;53.174;18.166;2022-11-20T00:52:27;100959.54;;;-0.43;72.83
76137;BME280;65019;53.174;18.166;2022-11-20T00:54:52;100961.98;;;-0.36;72.38
76137;BME280;65019;53.174;18.166;2022-11-20T00:57:18;100958.63;;;-0.33;72.15
76137;BME280;65019;53.174;18.166;2022-11-20T00:59:44;100962.02;;;-0.37;72.13
76137;BME280;65019;53.174;18.166;2022-11-20T01:02:10;100964.92;;;-0.42;72.15
76137;BME280;65019;53.174;18.166;2022-11-20T01:04:36;100967.33;;;-0.42;72.16
76137;BME280;65019;53.174;18.166;2022-11-20T01:07:02;100967.59;;;-0.41;71.96
76137;BME280;65019;53.174;18.166;2022-11-20T01:09:28;100966.23;;;-0.40;72.17
76137;BME280;65019;53.174;18.166;2022-11-20T01:11:54;100964.29;;;-0.30;72.10
76137;BME280;65019;53.174;18.166;2022-11-20T01:14:21;100958.67;;;-0.34;72.32
76137;BME280;65019;53.174;18.166;2022-11-20T01:16:49;100960.35;;;-0.25;71.87
76137;BME280;65019;53.174;18.166;2022-11-20T01:19:19;100954.14;;;-0.27;71.94
76137;BME280;65019;53.174;18.166;2022-11-20T01:21:48;100955.74;;;-0.29;71.70
76137;BME280;65019;53.174;18.166;2022-11-20T01:24:17;100951.32;;;-0.29;71.51
76137;BME280;65019;53.174;18.166;2022-11-20T01:26:45;100946.12;;;-0.27;71.15
76137;BME280;65019;53.174;18.166;2022-11-20T01:29:15;100945.35;;;-0.21;70.90
76137;BME280;65019;53.174;18.166;2022-11-20T01:31:42;100943.30;;;-0.25;71.69
76137;BME280;65019;53.174;18.166;2022-11-20T01:34:12;100943.63;;;-0.20;70.83
76137;BME280;65019;53.174;18.166;2022-11-20T01:36:39;100946.39;;;-0.05;70.95
76137;BME280;65019;53.174;18.166;2022-11-20T01:39:11;100950.80;;;-0.04;71.04
76137;BME280;65019;53.174;18.166;2022-11-20T01:41:38;100954.61;;;-0.10;71.21
76137;BME280;65019;53.174;18.166;2022-11-20T01:47:09;100952.25;;;-0.19;71.61
76137;BME280;65019;53.174;18.166;2022-11-20T01:49:48;100953.20;;;-0.25;71.54
76137;BME280;65019;53.174;18.166;2022-11-20T01:52:22;100953.85;;;-0.28;71.78
76137;BME280;65019;53.174;18.166;2022-11-20T01:54:54;100951.65;;;-0.33;72.20
76137;BME280;65019;53.174;18.166;2022-11-20T01:57:22;100947.06;;;-0.21;71.55
76137;BME280;65019;53.174;18.166;2022-11-20T02:00:02;100946.54;;;-0.17;71.41
76137;BME280;65019;53.174;18.166;2022-11-20T02:02:40;100946.34;;;-0.20;71.54
76137;BME280;65019;53.174;18.166;2022-11-20T02:07:48;100951.11;;;-0.50;72.63
76137;BME280;65019;53.174;18.166;2022-11-20T02:10:14;100951.09;;;-0.45;72.29
76137;BME280;65019;53.174;18.166;2022-11-20T02:12:40;100945.73;;;-0.43;72.14
76137;BME280;65019;53.174;18.166;2022-11-20T02:15:25;100939.50;;;-0.28;71.92
76137;BME280;65019;53.174;18.166;2022-11-20T02:17:52;100937.46;;;-0.28;72.08
76137;BME280;65019;53.174;18.166;2022-11-20T02:20:19;100939.98;;;-0.27;71.96
76137;BME280;65019;53.174;18.166;2022-11-20T02:23:09;100937.73;;;-0.31;71.63
76137;BME280;65019;53.174;18.166;2022-11-20T02:25:37;100931.23;;;-0.34;71.19
76137;BME280;65019;53.174;18.166;2022-11-20T02:28:05;100934.69;;;-0.35;71.68
76137;BME280;65019;53.174;18.166;2022-11-20T02:30:31;100930.79;;;-0.35;71.54
76137;BME280;65019;53.174;18.166;2022-11-20T02:32:58;100929.16;;;-0.33;70.91
76137;BME280;65019;53.174;18.166;2022-11-20T02:37:54;100921.85;;;-0.22;71.39
76137;BME280;65019;53.174;18.166;2022-11-20T02:40:21;100921.98;;;-0.25;71.70
76137;BME280;65019;53.174;18.166;2022-11-20T02:42:48;100920.28;;;-0.33;71.78
76137;BME280;65019;53.174;18.166;2022-11-20T02:45:17;100919.71;;;-0.45;72.50
76137;BME280;65019;53.174;18.166;2022-11-20T02:47:43;100916.01;;;-0.46;71.95
76137;BME280;65019;53.174;18.166;2022-11-20T02:50:09;100920.10;;;-0.50;72.32
76137;BME280;65019;53.174;18.166;2022-11-20T02:52:35;100924.31;;;-0.49;72.06
76137;BME280;65019;53.174;18.166;2022-11-20T02:55:02;100925.88;;;-0.32;71.54
76137;BME280;65019;53.174;18.166;2022-11-20T02:57:28;100924.89;;;-0.38;72.27
76137;BME280;65019;53.174;18.166;2022-11-20T02:59:54;100926.16;;;-0.35;72.42
76137;BME280;65019;53.174;18.166;2022-11-20T03:02:20;100926.70;;;-0.32;72.32
76137;BME280;65019;53.174;18.166;2022-11-20T03:04:46;100930.11;;;-0.32;71.86
76137;BME280;65019;53.174;18.166;2022-11-20T03:07:12;100932.23;;;-0.38;72.10
76137;BME280;65019;53.174;18.166;2022-11-20T03:09:39;100930.98;;;-0.45;72.25
76137;BME280;65019;53.174;18.166;2022-11-20T03:12:05;100931.23;;;-0.43;72.29
76137;BME280;65019;53.174;18.166;2022-11-20T03:14:31;100925.59;;;-0.51;72.96
76137;BME280;65019;53.174;18.166;2022-11-20T03:16:57;100925.09;;;-0.34;72.30
76137;BME280;65019;53.174;18.166;2022-11-20T03:19:23;100923.63;;;-0.36;72.74
76137;BME280;65019;53.174;18.166;2022-11-20T03:21:50;100921.52;;;-0.30;72.48
76137;BME280;65019;53.174;18.166;2022-11-20T03:24:16;100920.39;;;-0.36;72.87
76137;BME280;65019;53.174;18.166;2022-11-20T03:26:42;100922.95;;;-0.44;73.15
76137;BME280;65019;53.174;18.166;2022-11-20T03:29:09;100921.88;;;-0.47;73.16
76137;BME280;65019;53.174;18.166;2022-11-20T03:31:37;100916.98;;;-0.49;72.67
76137;BME280;65019;53.174;18.166;2022-11-20T03:34:08;100917.27;;;-0.47;72.53
76137;BME280;65019;53.174;18.166;2022-11-20T03:36:35;100916.86;;;-0.50;72.76
76137;BME280;65019;53.174;18.166;2022-11-20T03:39:02;100917.73;;;-0.38;72.54
76137;BME280;65019;53.174;18.166;2022-11-20T03:41:30;100917.73;;;-0.29;72.12
76137;BME280;65019;53.174;18.166;2022-11-20T03:43:59;100917.14;;;-0.35;72.93
76137;BME280;65019;53.174;18.166;2022-11-20T03:46:26;100922.41;;;-0.35;72.32
76137;BME280;65019;53.174;18.166;2022-11-20T03:48:53;100920.02;;;-0.39;72.28
76137;BME280;65019;53.174;18.166;2022-11-20T03:51:25;100921.73;;;-0.44;72.76
76137;BME280;65019;53.174;18.166;2022-11-20T03:53:55;100918.95;;;-0.47;72.70
76137;BME280;65019;53.174;18.166;2022-11-20T03:56:25;100920.05;;;-0.44;72.54
76137;BME280;65019;53.174;18.166;2022-11-20T03:58:51;100921.29;;;-0.28;72.32
76137;BME280;65019;53.174;18.166;2022-11-20T04:01:20;100921.86;;;-0.30;72.51
76137;BME280;65019;53.174;18.166;2022-11-20T04:03:47;100920.54;;;-0.35;72.35
76137;BME280;65019;53.174;18.166;2022-11-20T04:06:19;100919.61;;;-0.42;72.38
76137;BME280;65019;53.174;18.166;2022-11-20T04:08:45;100917.33;;;-0.49;72.38
76137;BME280;65019;53.174;18.166;2022-11-20T04:11:12;100919.91;;;-0.50;71.99
76137;BME280;65019;53.174;18.166;2022-11-20T04:13:40;100922.17;;;-0.59;72.77
76137;BME280;65019;53.174;18.166;2022-11-20T04:16:07;100923.52;;;-0.42;72.15
76137;BME280;65019;53.174;18.166;2022-11-20T04:18:35;100918.45;;;-0.39;72.13
76137;BME280;65019;53.174;18.166;2022-11-20T04:21:02;100918.12;;;-0.39;72.23
76137;BME280;65019;53.174;18.166;2022-11-20T04:23:29;100910.67;;;-0.44;72.40
76137;BME280;65019;53.174;18.166;2022-11-20T04:26:00;100909.12;;;-0.44;72.14
76137;BME280;65019;53.174;18.166;2022-11-20T04:28:27;100908.16;;;-0.45;71.75
76137;BME280;65019;53.174;18.166;2022-11-20T04:30:53;100910.39;;;-0.46;71.98
76137;BME280;65019;53.174;18.166;2022-11-20T04:33:19;100906.67;;;-0.47;71.89
76137;BME280;65019;53.174;18.166;2022-11-20T04:35:47;100906.11;;;-0.37;72.34
76137;BME280;65019;53.174;18.166;2022-11-20T04:38:13;100904.94;;;-0.33;72.11
76137;BME280;65019;53.174;18.166;2022-11-20T04:40:39;100901.61;;;-0.34;72.13
76137;BME280;65019;53.174;18.166;2022-11-20T04:43:05;100896.88;;;-0.40;71.94
76137;BME280;65019;53.174;18.166;2022-11-20T04:45:31;100896.14;;;-0.43;72.36
76137;BME280;65019;53.174;18.166;2022-11-20T04:47:57;100897.73;;;-0.49;72.63
76137;BME280;65019;53.174;18.166;2022-11-20T04:50:23;100894.42;;;-0.47;72.29
76137;BME280;65019;53.174;18.166;2022-11-20T04:52:49;100892.02;;;-0.38;72.31
76137;BME280;65019;53.174;18.166;2022-11-20T04:55:15;100893.35;;;-0.37;72.37
76137;BME280;65019;53.174;18.166;2022-11-20T04:57:41;100895.77;;;-0.38;72.45
76137;BME280;65019;53.174;18.166;2022-11-20T05:00:08;100892.81;;;-0.45;72.45
76137;BME280;65019;53.174;18.166;2022-11-20T05:02:34;100895.11;;;-0.52;72.50
76137;BME280;65019;53.174;18.166;2022-11-20T05:05:00;100893.64;;;-0.53;72.60
76137;BME280;65019;53.174;18.166;2022-11-20T05:07:26;100887.20;;;-0.54;72.94
76137;BME280;65019;53.174;18.166;2022-11-20T05:09:52;100885.39;;;-0.38;72.29
76137;BME280;65019;53.174;18.166;2022-11-20T05:12:18;100881.17;;;-0.48;72.81
76137;BME280;65019;53.174;18.166;2022-11-20T05:14:44;100883.48;;;-0.55;73.00
76137;BME280;65019;53.174;18.166;2022-11-20T05:17:11;100882.84;;;-0.56;72.52
76137;BME280;65019;53.174;18.166;2022-11-20T05:19:37;100885.89;;;-0.68;73.34
76137;BME280;65019;53.174;18.166;2022-11-20T05:22:04;100886.21;;;-0.63;72.87
76137;BME280;65019;53.174;18.166;2022-11-20T05:24:31;100882.32;;;-0.55;72.83
76137;BME280;65019;53.174;18.166;2022-11-20T05:26:57;100878.27;;;-0.52;72.88
76137;BME280;65019;53.174;18.166;2022-11-20T05:29:23;100876.00;;;-0.51;72.53
76137;BME280;65019;53.174;18.166;2022-11-20T05:31:49;100878.31;;;-0.53;72.60
76137;BME280;65019;53.174;18.166;2022-11-20T05:34:15;100878.89;;;-0.59;72.95
76137;BME280;65019;53.174;18.166;2022-11-20T05:36:41;100882.40;;;-0.62;72.85
76137;BME280;65019;53.174;18.166;2022-11-20T05:39:07;100884.79;;;-0.66;73.61
76137;BME280;65019;53.174;18.166;2022-11-20T05:41:33;100885.42;;;-0.44;72.85
76137;BME280;65019;53.174;18.166;2022-11-20T05:43:59;100885.63;;;-0.44;72.63
76137;BME280;65019;53.174;18.166;2022-11-20T05:46:25;100887.12;;;-0.43;72.65
76137;BME280;65019;53.174;18.166;2022-11-20T05:48:51;100886.02;;;-0.45;72.58
76137;BME280;65019;53.174;18.166;2022-11-20T05:51:18;100888.59;;;-0.50;72.66
76137;BME280;65019;53.174;18.166;2022-11-20T05:53:45;100886.52;;;-0.67;73.69
76137;BME280;65019;53.174;18.166;2022-11-20T05:56:13;100884.60;;;-0.66;73.33
76137;BME280;65019;53.174;18.166;2022-11-20T05:58:40;100884.23;;;-0.48;73.25
76137;BME280;65019;53.174;18.166;2022-11-20T06:01:21;100883.90;;;-0.43;72.78
76137;BME280;65019;53.174;18.166;2022-11-20T06:03:47;100885.55;;;-0.47;73.14
76137;BME280;65019;53.174;18.166;2022-11-20T06:06:17;100883.47;;;-0.50;72.77
76137;BME280;65019;53.174;18.166;2022-11-20T06:08:43;100887.52;;;-0.53;73.00
76137;BME280;65019;53.174;18.166;2022-11-20T06:11:11;100889.68;;;-0.52;72.30
76137;BME280;65019;53.174;18.166;2022-11-20T06:13:38;100891.12;;;-0.53;72.35
76137;BME280;65019;53.174;18.166;2022-11-20T06:16:05;100892.52;;;-0.42;72.23
76137;BME280;65019;53.174;18.166;2022-11-20T06:18:31;100893.65;;;-0.41;72.85
76137;BME280;65019;53.174;18.166;2022-11-20T06:21:09;100893.02;;;-0.33;72.41
76137;BME280;65019;53.174;18.166;2022-11-20T06:23:36;100892.23;;;-0.31;72.49
76137;BME280;65019;53.174;18.166;2022-11-20T06:26:13;100888.14;;;-0.39;72.36
76137;BME280;65019;53.174;18.166;2022-11-20T06:28:40;100890.48;;;-0.42;72.42
76137;BME280;65019;53.174;18.166;2022-11-20T06:31:06;100885.48;;;-0.45;72.09
76137;BME280;65019;53.174;18.166;2022-11-20T06:33:33;100889.46;;;-0.38;72.05
76137;BME280;65019;53.174;18.166;2022-11-20T06:36:00;100892.67;;;-0.25;71.83
76137;BME280;65019;53.174;18.166;2022-11-20T06:38:27;100889.88;;;-0.23;72.04
76137;BME280;65019;53.174;18.166;2022-11-20T06:40:54;100886.64;;;-0.27;72.55
76137;BME280;65019;53.174;18.166;2022-11-20T06:43:20;100877.94;;;-0.27;72.23
76137;BME280;65019;53.174;18.166;2022-11-20T06:45:52;100876.10;;;-0.28;72.09
76137;BME280;65019;53.174;18.166;2022-11-20T06:48:18;100878.45;;;-0.31;71.98
76137;BME280;65019;53.174;18.166;2022-11-20T06:50:44;100882.73;;;-0.32;72.23
76137;BME280;65019;53.174;18.166;2022-11-20T06:53:09;100885.86;;;-0.33;72.07
76137;BME280;65019;53.174;18.166;2022-11-20T06:55:35;100881.98;;;-0.18;72.22
76137;BME280;65019;53.174;18.166;2022-11-20T06:58:01;100880.36;;;-0.16;72.04
76137;BME280;65019;53.174;18.166;2022-11-20T07:00:27;100881.52;;;-0.15;72.09
76137;BME280;65019;53.174;18.166;2022-11-20T07:02:53;100879.75;;;-0.09;72.08
76137;BME280;65019;53.174;18.166;2022-11-20T07:05:19;100884.86;;;-0.09;72.05
76137;BME280;65019;53.174;18.166;2022-11-20T07:07:45;100883.77;;;-0.08;71.74
76137;BME280;65019;53.174;18.166;2022-11-20T07:10:12;100885.06;;;-0.10;71.72
76137;BME280;65019;53.174;18.166;2022-11-20T07:12:38;100880.47;;;-0.10;71.48
76137;BME280;65019;53.174;18.166;2022-11-20T07:15:04;100879.61;;;-0.10;71.14
76137;BME280;65019;53.174;18.166;2022-11-20T07:17:31;100873.98;;;-0.10;71.16
76137;BME280;65019;53.174;18.166;2022-11-20T07:19:56;100869.54;;;0.03;71.34
76137;BME280;65019;53.174;18.166;2022-11-20T07:22:22;100874.20;;;0.01;71.53
76137;BME280;65019;53.174;18.166;2022-11-20T07:24:48;100873.95;;;0.08;71.53
76137;BME280;65019;53.174;18.166;2022-11-20T07:27:14;100877.66;;;0.04;71.46
76137;BME280;65019;53.174;18.166;2022-11-20T07:29:40;100876.41;;;0.01;71.51
76137;BME280;65019;53.174;18.166;2022-11-20T07:32:06;100874.71;;;0.01;71.24
76137;BME280;65019;53.174;18.166;2022-11-20T07:34:32;100878.88;;;0.04;71.10
76137;BME280;65019;53.174;18.166;2022-11-20T07:36:58;100876.89;;;0.07;71.17
76137;BME280;65019;53.174;18.166;2022-11-20T07:39:24;100875.10;;;0.24;71.07
76137;BME280;65019;53.174;18.166;2022-11-20T07:41:50;100872.72;;;0.28;70.97
76137;BME280;65019;53.174;18.166;2022-11-20T07:44:16;100869.05;;;0.34;70.97
76137;BME280;65019;53.174;18.166;2022-11-20T07:46:42;100863.45;;;0.37;70.93
76137;BME280;65019;53.174;18.166;2022-11-20T07:49:08;100860.88;;;0.41;70.75
76137;BME280;65019;53.174;18.166;2022-11-20T07:51:34;100864.48;;;0.45;70.47
76137;BME280;65019;53.174;18.166;2022-11-20T07:54:00;100863.39;;;0.46;70.42
76137;BME280;65019;53.174;18.166;2022-11-20T07:56:26;100863.56;;;0.54;70.04
76137;BME280;65019;53.174;18.166;2022-11-20T07:58:52;100857.87;;;0.70;69.98
76137;BME280;65019;53.174;18.166;2022-11-20T08:01:18;100859.89;;;0.75;70.17
76137;BME280;65019;53.174;18.166;2022-11-20T08:03:44;100859.84;;;0.80;70.13
76137;BME280;65019;53.174;18.166;2022-11-20T08:06:10;100861.20;;;0.76;69.77
76137;BME280;65019;53.174;18.166;2022-11-20T08:08:36;100856.89;;;0.77;69.96
76137;BME280;65019;53.174;18.166;2022-11-20T08:11:05;100855.91;;;0.76;69.64
76137;BME280;65019;53.174;18.166;2022-11-20T08:13:49;100855.52;;;0.77;69.47
76137;BME280;65019;53.174;18.166;2022-11-20T08:16:34;100852.19;;;0.97;69.22
76137;BME280;65019;53.174;18.166;2022-11-20T08:19:00;100849.73;;;1.06;69.08
76137;BME280;65019;53.174;18.166;2022-11-20T08:21:26;100850.70;;;1.07;68.91
76137;BME280;65019;53.174;18.166;2022-11-20T08:23:52;100852.71;;;1.01;68.78
76137;BME280;65019;53.174;18.166;2022-11-20T08:26:18;100850.55;;;1.03;68.83
76137;BME280;65019;53.174;18.166;2022-11-20T08:28:44;100849.77;;;1.12;68.67
76137;BME280;65019;53.174;18.166;2022-11-20T08:31:10;100846.98;;;1.18;68.34
76137;BME280;65019;53.174;18.166;2022-11-20T08:33:36;100843.48;;;1.23;68.12
76137;BME280;65019;53.174;18.166;2022-11-20T08:36:03;100838.48;;;1.38;68.13
76137;BME280;65019;53.174;18.166;2022-11-20T08:38:30;100841.55;;;1.45;68.10
76137;BME280;65019;53.174;18.166;2022-11-20T08:41:02;100841.29;;;1.22;67.85
76137;BME280;65019;53.174;18.166;2022-11-20T08:43:47;100840.06;;;1.33;67.87
76137;BME280;65019;53.174;18.166;2022-11-20T08:46:14;100833.12;;;1.36;67.66
76137;BME280;65019;53.174;18.166;2022-11-20T08:48:40;100834.77;;;1.37;67.45
76137;BME280;65019;53.174;18.166;2022-11-20T08:51:06;100833.36;;;1.48;67.20
76137;BME280;65019;53.174;18.166;2022-11-20T08:53:32;100834.98;;;1.36;67.09
76137;BME280;65019;53.174;18.166;2022-11-20T08:55:58;100830.20;;;1.43;67.30
76137;BME280;65019;53.174;18.166;2022-11-20T08:58:25;100829.98;;;1.40;67.19
76137;BME280;65019;53.174;18.166;2022-11-20T09:00:52;100827.41;;;1.44;67.34
76137;BME280;65019;53.174;18.166;2022-11-20T09:03:18;100829.37;;;1.39;67.19
76137;BME280;65019;53.174;18.166;2022-11-20T09:05:44;100829.45;;;1.34;67.00
76137;BME280;65019;53.174;18.166;2022-11-20T09:08:11;100825.15;;;1.48;66.95
76137;BME280;65019;53.174;18.166;2022-11-20T09:10:37;100821.95;;;1.61;66.91
76137;BME280;65019;53.174;18.166;2022-11-20T09:13:05;100819.98;;;1.60;67.02
76137;BME280;65019;53.174;18.166;2022-11-20T09:15:32;100819.13;;;1.39;67.00
76137;BME280;65019;53.174;18.166;2022-11-20T09:18:00;100815.09;;;1.44;66.87
76137;BME280;65019;53.174;18.166;2022-11-20T09:20:28;100813.54;;;1.44;66.90
76137;BME280;65019;53.174;18.166;2022-11-20T09:22:56;100811.92;;;1.46;66.88
76137;BME280;65019;53.174;18.166;2022-11-20T09:25:23;100811.02;;;1.54;66.74
76137;BME280;65019;53.174;18.166;2022-11-20T09:27:57;100808.41;;;1.69;66.77
76137;BME280;65019;53.174;18.166;2022-11-20T09:30:23;100809.73;;;1.97;66.36
76137;BME280;65019;53.174;18.166;2022-11-20T09:32:49;100806.70;;;2.09;66.35
76137;BME280;65019;53.174;18.166;2022-11-20T09:35:16;100804.83;;;2.19;66.30
76137;BME280;65019;53.174;18.166;2022-11-20T09:37:44;100802.08;;;2.25;65.70
76137;BME280;65019;53.174;18.166;2022-11-20T09:40:25;100802.55;;;2.29;65.41
76137;BME280;65019;53.174;18.166;2022-11-20T09:43:28;100800.32;;;2.17;65.36
76137;BME280;65019;53.174;18.166;2022-11-20T09:46:12;100798.78;;;2.39;64.95
76137;BME280;65019;53.174;18.166;2022-11-20T09:54:23;100792.71;;;2.69;63.79
76137;BME280;65019;53.174;18.166;2022-11-20T09:56:59;100800.65;;;2.62;64.25
76137;BME280;65019;53.174;18.166;2022-11-20T09:59:33;100804.98;;;2.22;64.72
76137;BME280;65019;53.174;18.166;2022-11-20T10:02:02;100809.36;;;1.81;65.41
76137;BME280;65019;53.174;18.166;2022-11-20T10:04:33;100803.21;;;1.53;65.96
76137;BME280;65019;53.174;18.166;2022-11-20T10:07:23;100799.91;;;1.47;65.88
76137;BME280;65019;53.174;18.166;2022-11-20T10:09:54;100799.05;;;1.37;66.61
76137;BME280;65019;53.174;18.166;2022-11-20T10:13:07;100796.93;;;1.45;66.25
76137;BME280;65019;53.174;18.166;2022-11-20T10:15:55;100795.95;;;1.51;66.44
76137;BME280;65019;53.174;18.166;2022-11-20T10:30:11;100781.23;;;1.75;65.89
76137;BME280;65019;53.174;18.166;2022-11-20T10:32:40;100779.64;;;1.90;65.73
76137;BME280;65019;53.174;18.166;2022-11-20T10:37:44;100774.55;;;2.09;65.60
76137;BME280;65019;53.174;18.166;2022-11-20T10:40:22;100772.81;;;2.12;65.82
76137;BME280;65019;53.174;18.166;2022-11-20T10:42:59;100771.27;;;2.06;65.11
76137;BME280;65019;53.174;18.166;2022-11-20T10:45:36;100771.77;;;2.00;65.26
76137;BME280;65019;53.174;18.166;2022-11-20T10:50:35;100775.45;;;2.11;64.27
76137;BME280;65019;53.174;18.166;2022-11-20T10:56:00;100772.52;;;2.02;64.46
76137;BME280;65019;53.174;18.166;2022-11-20T10:58:48;100769.87;;;2.04;64.79
76137;BME280;65019;53.174;18.166;2022-11-20T11:01:20;100769.71;;;2.13;64.94
76137;BME280;65019;53.174;18.166;2022-11-20T11:03:53;100768.54;;;2.22;65.16
76137;BME280;65019;53.174;18.166;2022-11-20T11:08:50;100768.46;;;2.07;64.94
76137;BME280;65019;53.174;18.166;2022-11-20T11:11:33;100769.42;;;2.12;64.99
76137;BME280;65019;53.174;18.166;2022-11-20T11:14:06;100767.98;;;2.07;64.70
76137;BME280;65019;53.174;18.166;2022-11-20T11:16:32;100767.84;;;1.96;64.92
76137;BME280;65019;53.174;18.166;2022-11-20T11:19:06;100769.91;;;1.86;64.90
76137;BME280;65019;53.174;18.166;2022-11-20T11:21:34;100768.70;;;1.89;64.86
76137;BME280;65019;53.174;18.166;2022-11-20T11:24:03;100768.66;;;1.90;64.89
76137;BME280;65019;53.174;18.166;2022-11-20T11:26:30;100767.20;;;1.79;65.17
76137;BME280;65019;53.174;18.166;2022-11-20T11:29:00;100766.63;;;1.70;65.35
76137;BME280;65019;53.174;18.166;2022-11-20T11:31:34;100768.71;;;1.66;65.00
76137;BME280;65019;53.174;18.166;2022-11-20T11:34:11;100767.40;;;1.55;65.32
76137;BME280;65019;53.174;18.166;2022-11-20T11:36:38;100767.67;;;1.46;65.62
76137;BME280;65019;53.174;18.166;2022-11-20T11:39:11;100766.25;;;1.47;65.27
76137;BME280;65019;53.174;18.166;2022-11-20T11:41:40;100764.89;;;1.53;65.82
76137;BME280;65019;53.174;18.166;2022-11-20T11:44:20;100764.77;;;1.56;65.79
76137;BME280;65019;53.174;18.166;2022-11-20T11:47:21;100767.88;;;1.52;66.05
76137;BME280;65019;53.174;18.166;2022-11-20T11:49:48;100767.30;;;1.40;66.27
76137;BME280;65019;53.174;18.166;2022-11-20T11:52:17;100760.16;;;1.39;66.26
76137;BME280;65019;53.174;18.166;2022-11-20T11:55:01;100760.59;;;1.44;65.79
76137;BME280;65019;53.174;18.166;2022-11-20T12:00:14;100749.50;;;1.61;65.61
76137;BME280;65019;53.174;18.166;2022-11-20T12:05:14;100744.00;;;1.88;65.95
76137;BME280;65019;53.174;18.166;2022-11-20T12:07:46;100743.10;;;1.82;65.94
76137;BME280;65019;53.174;18.166;2022-11-20T12:10:23;100742.48;;;1.77;65.81
76137;BME280;65019;53.174;18.166;2022-11-20T12:15:42;100740.41;;;1.74;65.77
76137;BME280;65019;53.174;18.166;2022-11-20T12:18:15;100736.33;;;1.90;65.90
76137;BME280;65019;53.174;18.166;2022-11-20T12:21:01;100734.72;;;2.05;65.71
76137;BME280;65019;53.174;18.166;2022-11-20T12:26:49;100727.91;;;2.08;65.45
76137;BME280;65019;53.174;18.166;2022-11-20T12:40:35;100704.63;;;2.33;65.28
76137;BME280;65019;53.174;18.166;2022-11-20T12:43:21;100702.29;;;2.35;65.34
76137;BME280;65019;53.174;18.166;2022-11-20T12:46:21;100701.14;;;2.35;65.13
76137;BME280;65019;53.174;18.166;2022-11-20T13:00:06;100696.52;;;2.50;65.37
76137;BME280;65019;53.174;18.166;2022-11-20T13:05:27;100684.83;;;2.44;65.72
76137;BME280;65019;53.174;18.166;2022-11-20T13:07:57;100676.09;;;2.66;65.55
76137;BME280;65019;53.174;18.166;2022-11-20T13:10:45;100679.46;;;2.70;65.41
76137;BME280;65019;53.174;18.166;2022-11-20T13:19:01;100679.02;;;2.44;65.17
76137;BME280;65019;53.174;18.166;2022-11-20T13:21:43;100676.83;;;2.38;65.52
76137;BME280;65019;53.174;18.166;2022-11-20T13:29:27;100654.13;;;2.52;65.49
76137;BME280;65019;53.174;18.166;2022-11-20T13:32:06;100649.75;;;2.48;65.51
76137;BME280;65019;53.174;18.166;2022-11-20T13:34:33;100650.76;;;2.45;65.49
76137;BME280;65019;53.174;18.166;2022-11-20T13:37:00;100655.94;;;2.41;65.28
76137;BME280;65019;53.174;18.166;2022-11-20T13:39:36;100653.42;;;2.40;65.56
76137;BME280;65019;53.174;18.166;2022-11-20T13:42:03;100650.66;;;2.40;65.64
76137;BME280;65019;53.174;18.166;2022-11-20T13:44:55;100655.69;;;2.30;65.97
76137;BME280;65019;53.174;18.166;2022-11-20T13:47:28;100656.73;;;2.14;66.13
76137;BME280;65019;53.174;18.166;2022-11-20T13:49:58;100652.52;;;2.03;66.01
76137;BME280;65019;53.174;18.166;2022-11-20T13:55:38;100655.02;;;1.79;66.72
76137;BME280;65019;53.174;18.166;2022-11-20T14:01:10;100649.88;;;1.56;67.12
76137;BME280;65019;53.174;18.166;2022-11-20T14:03:38;100645.54;;;1.44;67.02
76137;BME280;65019;53.174;18.166;2022-11-20T14:06:17;100645.96;;;1.33;67.32
76137;BME280;65019;53.174;18.166;2022-11-20T14:08:50;100646.17;;;1.32;66.85
76137;BME280;65019;53.174;18.166;2022-11-20T14:11:19;100646.04;;;1.38;66.92
76137;BME280;65019;53.174;18.166;2022-11-20T14:14:04;100642.59;;;1.42;67.16
76137;BME280;65019;53.174;18.166;2022-11-20T14:16:33;100642.51;;;1.27;67.87
76137;BME280;65019;53.174;18.166;2022-11-20T14:19:29;100640.17;;;1.26;67.39
76137;BME280;65019;53.174;18.166;2022-11-20T14:22:19;100642.05;;;1.13;68.20
76137;BME280;65019;53.174;18.166;2022-11-20T14:27:35;100637.48;;;0.95;68.50
76137;BME280;65019;53.174;18.166;2022-11-20T14:30:03;100642.60;;;1.05;68.02